Terminal Aerodrome Forecast
Issued by NWS

Home | Current Version | Previous Version | Text Only | Print | Product List | Glossary Off
Versions: 1 2 3 4 5 6 7 8 9 10 11 12 13 14

000
FTUS45 KGGW 151100
TAFSDY
TAF
KSDY 151138Z 1512/1612 31018KT 6SM -SN BR BKN011 OVC025
     FM151500 33014KT P6SM BKN015
     FM152000 33006KT P6SM BKN020
     FM160000 VRB03KT P6SM SCT020
      AMD LTD TO CLD VIS AND WIND=

USA.gov is the U.S. government's official web portal to all federal, state and local government web resources and services.